sensor_id;sensor_type;location;lat;lon;timestamp;P1;durP1;ratioP1;P2;durP2;ratioP2
69779;SDS011;57052;55.602;38.096;2022-07-29T00:02:02;2.78;;;1.40;;
69779;SDS011;57052;55.602;38.096;2022-07-29T00:04:28;1.25;;;1.08;;
69779;SDS011;57052;55.602;38.096;2022-07-29T00:06:53;2.78;;;1.83;;
69779;SDS011;57052;55.602;38.096;2022-07-29T00:09:19;1.80;;;1.42;;
69779;SDS011;57052;55.602;38.096;2022-07-29T00:11:45;2.55;;;1.73;;
69779;SDS011;57052;55.602;38.096;2022-07-29T00:14:10;2.72;;;1.90;;
69779;SDS011;57052;55.602;38.096;2022-07-29T00:16:36;4.80;;;1.77;;
69779;SDS011;57052;55.602;38.096;2022-07-29T00:19:02;2.58;;;1.80;;
69779;SDS011;57052;55.602;38.096;2022-07-29T00:21:28;3.95;;;1.70;;
69779;SDS011;57052;55.602;38.096;2022-07-29T00:23:54;2.97;;;1.80;;
69779;SDS011;57052;55.602;38.096;2022-07-29T00:26:20;3.15;;;1.60;;
69779;SDS011;57052;55.602;38.096;2022-07-29T00:28:45;3.15;;;1.77;;
69779;SDS011;57052;55.602;38.096;2022-07-29T00:31:11;3.08;;;1.60;;
69779;SDS011;57052;55.602;38.096;2022-07-29T00:33:37;3.00;;;1.67;;
69779;SDS011;57052;55.602;38.096;2022-07-29T00:36:02;3.40;;;1.90;;
69779;SDS011;57052;55.602;38.096;2022-07-29T00:38:28;4.35;;;1.70;;
69779;SDS011;57052;55.602;38.096;2022-07-29T00:40:54;3.22;;;1.88;;
69779;SDS011;57052;55.602;38.096;2022-07-29T00:43:20;2.53;;;1.63;;
69779;SDS011;57052;55.602;38.096;2022-07-29T00:45:45;4.20;;;1.55;;
69779;SDS011;57052;55.602;38.096;2022-07-29T00:48:11;2.83;;;1.80;;
69779;SDS011;57052;55.602;38.096;2022-07-29T00:50:37;2.47;;;1.63;;
69779;SDS011;57052;55.602;38.096;2022-07-29T00:53:03;2.60;;;1.67;;
69779;SDS011;57052;55.602;38.096;2022-07-29T00:55:30;3.20;;;1.60;;
69779;SDS011;57052;55.602;38.096;2022-07-29T00:57:56;3.85;;;1.80;;
69779;SDS011;57052;55.602;38.096;2022-07-29T01:00:24;2.47;;;1.60;;
69779;SDS011;57052;55.602;38.096;2022-07-29T01:02:51;1.90;;;1.48;;
69779;SDS011;57052;55.602;38.096;2022-07-29T01:05:17;3.17;;;1.40;;
69779;SDS011;57052;55.602;38.096;2022-07-29T01:07:45;2.40;;;1.48;;
69779;SDS011;57052;55.602;38.096;2022-07-29T01:10:12;3.92;;;1.55;;
69779;SDS011;57052;55.602;38.096;2022-07-29T01:12:39;3.50;;;1.30;;
69779;SDS011;57052;55.602;38.096;2022-07-29T01:15:08;2.10;;;1.40;;
69779;SDS011;57052;55.602;38.096;2022-07-29T01:20:49;3.08;;;1.50;;
69779;SDS011;57052;55.602;38.096;2022-07-29T01:31:43;1.95;;;1.55;;
69779;SDS011;57052;55.602;38.096;2022-07-29T01:34:22;1.58;;;1.25;;
69779;SDS011;57052;55.602;38.096;2022-07-29T01:36:57;2.00;;;1.48;;
69779;SDS011;57052;55.602;38.096;2022-07-29T01:39:46;4.35;;;1.70;;
69779;SDS011;57052;55.602;38.096;2022-07-29T01:42:15;2.88;;;1.40;;
69779;SDS011;57052;55.602;38.096;2022-07-29T01:47:19;2.97;;;1.60;;
69779;SDS011;57052;55.602;38.096;2022-07-29T01:49:49;2.85;;;1.50;;
69779;SDS011;57052;55.602;38.096;2022-07-29T01:52:38;4.07;;;1.50;;
69779;SDS011;57052;55.602;38.096;2022-07-29T01:55:13;3.92;;;1.35;;
69779;SDS011;57052;55.602;38.096;2022-07-29T01:57:40;2.83;;;1.57;;
69779;SDS011;57052;55.602;38.096;2022-07-29T02:00:09;3.67;;;1.50;;
69779;SDS011;57052;55.602;38.096;2022-07-29T02:02:36;3.42;;;1.40;;
69779;SDS011;57052;55.602;38.096;2022-07-29T02:05:04;4.78;;;1.50;;
69779;SDS011;57052;55.602;38.096;2022-07-29T02:07:32;2.83;;;1.38;;
69779;SDS011;57052;55.602;38.096;2022-07-29T02:10:00;3.10;;;1.35;;
69779;SDS011;57052;55.602;38.096;2022-07-29T02:12:29;3.60;;;1.48;;
69779;SDS011;57052;55.602;38.096;2022-07-29T02:15:17;1.98;;;1.27;;
69779;SDS011;57052;55.602;38.096;2022-07-29T02:17:45;3.38;;;1.58;;
69779;SDS011;57052;55.602;38.096;2022-07-29T02:20:16;4.13;;;1.63;;
69779;SDS011;57052;55.602;38.096;2022-07-29T02:22:42;4.00;;;1.77;;
69779;SDS011;57052;55.602;38.096;2022-07-29T02:25:10;3.03;;;1.67;;
69779;SDS011;57052;55.602;38.096;2022-07-29T02:27:37;2.67;;;1.48;;
69779;SDS011;57052;55.602;38.096;2022-07-29T02:30:05;2.20;;;1.58;;
69779;SDS011;57052;55.602;38.096;2022-07-29T02:32:31;4.00;;;1.70;;
69779;SDS011;57052;55.602;38.096;2022-07-29T02:35:01;4.13;;;1.70;;
69779;SDS011;57052;55.602;38.096;2022-07-29T02:37:29;2.60;;;1.50;;
69779;SDS011;57052;55.602;38.096;2022-07-29T02:39:57;5.13;;;1.60;;
69779;SDS011;57052;55.602;38.096;2022-07-29T02:42:23;3.47;;;1.50;;
69779;SDS011;57052;55.602;38.096;2022-07-29T02:44:52;2.35;;;1.42;;
69779;SDS011;57052;55.602;38.096;2022-07-29T02:47:27;3.03;;;1.50;;
69779;SDS011;57052;55.602;38.096;2022-07-29T02:50:07;4.57;;;1.70;;
69779;SDS011;57052;55.602;38.096;2022-07-29T02:52:39;2.45;;;1.45;;
69779;SDS011;57052;55.602;38.096;2022-07-29T02:57:54;2.83;;;1.48;;
69779;SDS011;57052;55.602;38.096;2022-07-29T03:00:27;4.63;;;1.85;;
69779;SDS011;57052;55.602;38.096;2022-07-29T03:02:54;5.55;;;1.90;;
69779;SDS011;57052;55.602;38.096;2022-07-29T03:05:24;3.35;;;1.90;;
69779;SDS011;57052;55.602;38.096;2022-07-29T03:07:57;4.60;;;1.70;;
69779;SDS011;57052;55.602;38.096;2022-07-29T03:10:26;3.45;;;1.70;;
69779;SDS011;57052;55.602;38.096;2022-07-29T03:12:52;4.13;;;1.80;;
69779;SDS011;57052;55.602;38.096;2022-07-29T03:15:20;7.53;;;2.92;;
69779;SDS011;57052;55.602;38.096;2022-07-29T03:17:46;4.30;;;1.80;;
69779;SDS011;57052;55.602;38.096;2022-07-29T03:20:13;2.95;;;1.65;;
69779;SDS011;57052;55.602;38.096;2022-07-29T03:22:39;2.80;;;1.60;;
69779;SDS011;57052;55.602;38.096;2022-07-29T03:25:15;6.45;;;1.75;;
69779;SDS011;57052;55.602;38.096;2022-07-29T03:27:42;3.25;;;1.70;;
69779;SDS011;57052;55.602;38.096;2022-07-29T03:30:09;3.47;;;1.45;;
69779;SDS011;57052;55.602;38.096;2022-07-29T03:32:36;4.10;;;1.77;;
69779;SDS011;57052;55.602;38.096;2022-07-29T03:35:01;4.63;;;1.98;;
69779;SDS011;57052;55.602;38.096;2022-07-29T03:37:28;4.93;;;2.08;;
69779;SDS011;57052;55.602;38.096;2022-07-29T03:39:56;4.50;;;1.85;;
69779;SDS011;57052;55.602;38.096;2022-07-29T03:42:26;3.58;;;1.67;;
69779;SDS011;57052;55.602;38.096;2022-07-29T03:44:55;3.45;;;1.90;;
69779;SDS011;57052;55.602;38.096;2022-07-29T03:47:25;5.78;;;1.80;;
69779;SDS011;57052;55.602;38.096;2022-07-29T03:49:52;3.55;;;1.90;;
69779;SDS011;57052;55.602;38.096;2022-07-29T03:52:28;3.60;;;1.90;;
69779;SDS011;57052;55.602;38.096;2022-07-29T03:54:54;6.75;;;1.60;;
69779;SDS011;57052;55.602;38.096;2022-07-29T03:57:23;4.43;;;1.42;;
69779;SDS011;57052;55.602;38.096;2022-07-29T03:59:52;6.05;;;1.50;;
69779;SDS011;57052;55.602;38.096;2022-07-29T04:02:18;5.85;;;1.73;;
69779;SDS011;57052;55.602;38.096;2022-07-29T04:04:45;4.93;;;1.65;;
69779;SDS011;57052;55.602;38.096;2022-07-29T04:07:14;4.57;;;1.70;;
69779;SDS011;57052;55.602;38.096;2022-07-29T04:09:40;5.97;;;2.33;;
69779;SDS011;57052;55.602;38.096;2022-07-29T04:12:07;6.70;;;1.75;;
69779;SDS011;57052;55.602;38.096;2022-07-29T04:14:33;2.60;;;1.48;;
69779;SDS011;57052;55.602;38.096;2022-07-29T04:17:02;2.83;;;1.40;;
69779;SDS011;57052;55.602;38.096;2022-07-29T04:19:29;5.53;;;1.80;;
69779;SDS011;57052;55.602;38.096;2022-07-29T04:21:56;5.57;;;1.90;;
69779;SDS011;57052;55.602;38.096;2022-07-29T04:24:23;3.50;;;1.63;;
69779;SDS011;57052;55.602;38.096;2022-07-29T04:26:48;3.05;;;1.40;;
69779;SDS011;57052;55.602;38.096;2022-07-29T04:29:14;2.70;;;1.45;;
69779;SDS011;57052;55.602;38.096;2022-07-29T04:31:40;4.70;;;1.50;;
69779;SDS011;57052;55.602;38.096;2022-07-29T04:34:06;5.28;;;1.30;;
69779;SDS011;57052;55.602;38.096;2022-07-29T04:36:32;3.22;;;1.38;;
69779;SDS011;57052;55.602;38.096;2022-07-29T04:38:58;2.67;;;1.40;;
69779;SDS011;57052;55.602;38.096;2022-07-29T04:41:23;5.22;;;1.58;;
69779;SDS011;57052;55.602;38.096;2022-07-29T04:43:49;3.55;;;1.30;;
69779;SDS011;57052;55.602;38.096;2022-07-29T04:46:15;2.35;;;1.15;;
69779;SDS011;57052;55.602;38.096;2022-07-29T04:48:41;2.30;;;1.27;;
69779;SDS011;57052;55.602;38.096;2022-07-29T04:51:06;3.92;;;1.30;;
69779;SDS011;57052;55.602;38.096;2022-07-29T04:53:32;2.25;;;1.40;;
69779;SDS011;57052;55.602;38.096;2022-07-29T04:55:58;1.85;;;1.20;;
69779;SDS011;57052;55.602;38.096;2022-07-29T04:58:24;4.45;;;1.48;;
69779;SDS011;57052;55.602;38.096;2022-07-29T05:00:50;3.50;;;1.45;;
69779;SDS011;57052;55.602;38.096;2022-07-29T05:03:16;7.47;;;1.40;;
69779;SDS011;57052;55.602;38.096;2022-07-29T05:05:41;6.53;;;1.48;;
69779;SDS011;57052;55.602;38.096;2022-07-29T05:08:07;3.63;;;1.40;;
69779;SDS011;57052;55.602;38.096;2022-07-29T05:10:33;5.38;;;1.40;;
69779;SDS011;57052;55.602;38.096;2022-07-29T05:13:06;2.88;;;1.20;;
69779;SDS011;57052;55.602;38.096;2022-07-29T05:15:32;3.75;;;1.70;;
69779;SDS011;57052;55.602;38.096;2022-07-29T05:17:58;3.00;;;1.30;;
69779;SDS011;57052;55.602;38.096;2022-07-29T05:20:24;3.22;;;1.40;;
69779;SDS011;57052;55.602;38.096;2022-07-29T05:22:57;3.08;;;1.20;;
69779;SDS011;57052;55.602;38.096;2022-07-29T05:25:24;6.05;;;1.70;;
69779;SDS011;57052;55.602;38.096;2022-07-29T05:27:50;3.35;;;1.10;;
69779;SDS011;57052;55.602;38.096;2022-07-29T05:30:15;3.85;;;1.33;;
69779;SDS011;57052;55.602;38.096;2022-07-29T05:32:41;2.17;;;1.50;;
69779;SDS011;57052;55.602;38.096;2022-07-29T05:35:07;3.22;;;1.30;;
69779;SDS011;57052;55.602;38.096;2022-07-29T05:37:33;3.20;;;1.38;;
69779;SDS011;57052;55.602;38.096;2022-07-29T05:39:59;3.80;;;1.90;;
69779;SDS011;57052;55.602;38.096;2022-07-29T05:42:25;2.88;;;1.20;;
69779;SDS011;57052;55.602;38.096;2022-07-29T05:44:51;3.10;;;1.60;;
69779;SDS011;57052;55.602;38.096;2022-07-29T05:47:16;4.47;;;1.33;;
69779;SDS011;57052;55.602;38.096;2022-07-29T05:49:42;3.08;;;1.50;;
69779;SDS011;57052;55.602;38.096;2022-07-29T05:52:08;3.30;;;1.35;;
69779;SDS011;57052;55.602;38.096;2022-07-29T05:54:34;4.07;;;1.25;;
69779;SDS011;57052;55.602;38.096;2022-07-29T05:57:00;2.65;;;1.05;;
69779;SDS011;57052;55.602;38.096;2022-07-29T05:59:25;3.67;;;1.30;;
69779;SDS011;57052;55.602;38.096;2022-07-29T06:01:51;3.88;;;1.63;;
69779;SDS011;57052;55.602;38.096;2022-07-29T06:04:16;2.22;;;1.10;;
69779;SDS011;57052;55.602;38.096;2022-07-29T06:06:42;3.30;;;1.27;;
69779;SDS011;57052;55.602;38.096;2022-07-29T06:09:07;2.92;;;1.23;;
69779;SDS011;57052;55.602;38.096;2022-07-29T06:11:33;4.32;;;1.30;;
69779;SDS011;57052;55.602;38.096;2022-07-29T06:13:59;3.67;;;1.20;;
69779;SDS011;57052;55.602;38.096;2022-07-29T06:16:24;2.85;;;1.38;;
69779;SDS011;57052;55.602;38.096;2022-07-29T06:18:50;3.25;;;1.40;;
69779;SDS011;57052;55.602;38.096;2022-07-29T06:21:16;2.33;;;1.10;;
69779;SDS011;57052;55.602;38.096;2022-07-29T06:23:41;4.78;;;1.20;;
69779;SDS011;57052;55.602;38.096;2022-07-29T06:26:07;3.78;;;1.10;;
69779;SDS011;57052;55.602;38.096;2022-07-29T06:28:33;2.70;;;1.17;;
69779;SDS011;57052;55.602;38.096;2022-07-29T06:30:59;2.58;;;1.13;;
69779;SDS011;57052;55.602;38.096;2022-07-29T06:33:25;6.30;;;1.60;;
69779;SDS011;57052;55.602;38.096;2022-07-29T06:35:50;3.85;;;1.48;;
69779;SDS011;57052;55.602;38.096;2022-07-29T06:38:16;2.80;;;1.60;;
69779;SDS011;57052;55.602;38.096;2022-07-29T06:40:42;5.28;;;1.40;;
69779;SDS011;57052;55.602;38.096;2022-07-29T06:43:35;3.83;;;1.40;;
69779;SDS011;57052;55.602;38.096;2022-07-29T06:46:04;2.50;;;1.00;;
69779;SDS011;57052;55.602;38.096;2022-07-29T06:48:31;5.68;;;1.10;;
69779;SDS011;57052;55.602;38.096;2022-07-29T06:50:58;4.40;;;1.35;;
69779;SDS011;57052;55.602;38.096;2022-07-29T06:53:24;3.47;;;1.05;;
69779;SDS011;57052;55.602;38.096;2022-07-29T06:55:49;4.05;;;1.17;;
69779;SDS011;57052;55.602;38.096;2022-07-29T06:58:15;2.90;;;1.15;;
69779;SDS011;57052;55.602;38.096;2022-07-29T07:00:43;3.17;;;1.40;;
69779;SDS011;57052;55.602;38.096;2022-07-29T07:03:10;6.85;;;1.30;;
69779;SDS011;57052;55.602;38.096;2022-07-29T07:05:38;5.30;;;1.38;;
69779;SDS011;57052;55.602;38.096;2022-07-29T07:08:04;4.30;;;1.40;;
69779;SDS011;57052;55.602;38.096;2022-07-29T07:10:29;4.43;;;1.48;;
69779;SDS011;57052;55.602;38.096;2022-07-29T07:12:56;3.40;;;1.30;;
69779;SDS011;57052;55.602;38.096;2022-07-29T07:15:22;4.07;;;1.50;;
69779;SDS011;57052;55.602;38.096;2022-07-29T07:17:48;2.80;;;1.40;;
69779;SDS011;57052;55.602;38.096;2022-07-29T07:20:17;5.75;;;1.40;;
69779;SDS011;57052;55.602;38.096;2022-07-29T07:22:43;7.18;;;1.40;;
69779;SDS011;57052;55.602;38.096;2022-07-29T07:25:09;6.00;;;1.50;;
69779;SDS011;57052;55.602;38.096;2022-07-29T07:27:36;6.57;;;1.92;;
69779;SDS011;57052;55.602;38.096;2022-07-29T07:30:03;5.85;;;1.50;;
69779;SDS011;57052;55.602;38.096;2022-07-29T07:32:33;3.03;;;1.30;;
69779;SDS011;57052;55.602;38.096;2022-07-29T07:35:00;3.20;;;1.40;;
69779;SDS011;57052;55.602;38.096;2022-07-29T07:37:25;3.75;;;1.40;;
69779;SDS011;57052;55.602;38.096;2022-07-29T07:39:52;3.80;;;1.60;;
69779;SDS011;57052;55.602;38.096;2022-07-29T07:42:18;4.72;;;1.60;;
69779;SDS011;57052;55.602;38.096;2022-07-29T07:44:44;3.38;;;1.27;;
69779;SDS011;57052;55.602;38.096;2022-07-29T07:47:11;4.70;;;1.50;;
69779;SDS011;57052;55.602;38.096;2022-07-29T07:49:37;6.30;;;1.42;;
69779;SDS011;57052;55.602;38.096;2022-07-29T07:52:03;5.47;;;1.50;;
69779;SDS011;57052;55.602;38.096;2022-07-29T07:54:29;4.28;;;1.42;;
69779;SDS011;57052;55.602;38.096;2022-07-29T07:56:56;2.40;;;1.50;;
69779;SDS011;57052;55.602;38.096;2022-07-29T07:59:22;6.28;;;1.50;;
69779;SDS011;57052;55.602;38.096;2022-07-29T08:01:48;4.38;;;1.40;;
69779;SDS011;57052;55.602;38.096;2022-07-29T08:04:14;2.15;;;1.33;;
69779;SDS011;57052;55.602;38.096;2022-07-29T08:06:40;3.53;;;1.50;;
69779;SDS011;57052;55.602;38.096;2022-07-29T08:09:05;2.92;;;1.50;;
69779;SDS011;57052;55.602;38.096;2022-07-29T08:11:31;3.42;;;1.42;;
69779;SDS011;57052;55.602;38.096;2022-07-29T08:13:57;3.72;;;1.60;;
69779;SDS011;57052;55.602;38.096;2022-07-29T08:16:23;2.35;;;1.48;;
69779;SDS011;57052;55.602;38.096;2022-07-29T08:18:50;2.72;;;1.30;;
69779;SDS011;57052;55.602;38.096;2022-07-29T08:21:17;3.20;;;1.23;;
69779;SDS011;57052;55.602;38.096;2022-07-29T08:23:43;3.40;;;1.50;;
69779;SDS011;57052;55.602;38.096;2022-07-29T08:26:18;3.13;;;1.30;;
69779;SDS011;57052;55.602;38.096;2022-07-29T08:28:45;3.35;;;1.35;;
69779;SDS011;57052;55.602;38.096;2022-07-29T08:31:14;4.22;;;1.50;;
69779;SDS011;57052;55.602;38.096;2022-07-29T08:33:41;2.60;;;1.10;;
69779;SDS011;57052;55.602;38.096;2022-07-29T08:36:07;3.42;;;1.48;;
69779;SDS011;57052;55.602;38.096;2022-07-29T08:38:33;3.55;;;1.17;;
69779;SDS011;57052;55.602;38.096;2022-07-29T08:41:02;3.40;;;1.25;;
69779;SDS011;57052;55.602;38.096;2022-07-29T08:43:28;1.58;;;1.10;;
69779;SDS011;57052;55.602;38.096;2022-07-29T08:45:54;3.33;;;1.10;;
69779;SDS011;57052;55.602;38.096;2022-07-29T08:48:23;1.83;;;1.15;;
69779;SDS011;57052;55.602;38.096;2022-07-29T08:50:52;1.80;;;1.05;;
69779;SDS011;57052;55.602;38.096;2022-07-29T08:53:20;2.63;;;1.20;;
69779;SDS011;57052;55.602;38.096;2022-07-29T08:55:49;1.92;;;1.13;;
69779;SDS011;57052;55.602;38.096;2022-07-29T08:58:15;2.85;;;1.27;;
69779;SDS011;57052;55.602;38.096;2022-07-29T09:00:46;4.20;;;1.30;;
69779;SDS011;57052;55.602;38.096;2022-07-29T09:03:19;2.53;;;0.98;;
69779;SDS011;57052;55.602;38.096;2022-07-29T09:05:47;4.32;;;1.02;;
69779;SDS011;57052;55.602;38.096;2022-07-29T09:08:14;4.30;;;1.40;;
69779;SDS011;57052;55.602;38.096;2022-07-29T09:10:41;4.18;;;1.45;;
69779;SDS011;57052;55.602;38.096;2022-07-29T09:13:08;3.72;;;1.20;;
69779;SDS011;57052;55.602;38.096;2022-07-29T09:15:34;2.67;;;1.20;;
69779;SDS011;57052;55.602;38.096;2022-07-29T09:18:00;3.20;;;1.25;;
69779;SDS011;57052;55.602;38.096;2022-07-29T09:20:27;5.40;;;1.40;;
69779;SDS011;57052;55.602;38.096;2022-07-29T09:23:13;1.75;;;1.13;;
69779;SDS011;57052;55.602;38.096;2022-07-29T09:25:40;3.38;;;1.30;;
69779;SDS011;57052;55.602;38.096;2022-07-29T09:28:10;2.15;;;1.08;;
69779;SDS011;57052;55.602;38.096;2022-07-29T09:30:52;4.10;;;1.00;;
69779;SDS011;57052;55.602;38.096;2022-07-29T09:33:20;1.60;;;0.90;;
69779;SDS011;57052;55.602;38.096;2022-07-29T09:35:58;6.13;;;1.20;;
69779;SDS011;57052;55.602;38.096;2022-07-29T09:38:25;7.70;;;1.30;;
69779;SDS011;57052;55.602;38.096;2022-07-29T09:41:01;1.55;;;0.98;;
69779;SDS011;57052;55.602;38.096;2022-07-29T09:43:28;3.00;;;1.20;;
69779;SDS011;57052;55.602;38.096;2022-07-29T09:45:54;2.85;;;1.20;;
69779;SDS011;57052;55.602;38.096;2022-07-29T09:48:23;1.67;;;1.00;;
69779;SDS011;57052;55.602;38.096;2022-07-29T09:50:50;2.47;;;1.33;;
69779;SDS011;57052;55.602;38.096;2022-07-29T09:53:30;6.30;;;1.50;;
69779;SDS011;57052;55.602;38.096;2022-07-29T09:56:05;2.78;;;1.20;;
69779;SDS011;57052;55.602;38.096;2022-07-29T09:58:31;5.18;;;1.27;;
69779;SDS011;57052;55.602;38.096;2022-07-29T10:01:00;2.35;;;1.20;;
69779;SDS011;57052;55.602;38.096;2022-07-29T10:03:26;6.43;;;1.30;;
69779;SDS011;57052;55.602;38.096;2022-07-29T10:06:05;3.65;;;1.30;;
69779;SDS011;57052;55.602;38.096;2022-07-29T10:08:36;3.58;;;1.10;;
69779;SDS011;57052;55.602;38.096;2022-07-29T10:11:12;2.13;;;1.10;;
69779;SDS011;57052;55.602;38.096;2022-07-29T10:13:40;4.15;;;1.23;;
69779;SDS011;57052;55.602;38.096;2022-07-29T10:16:07;4.00;;;1.30;;
69779;SDS011;57052;55.602;38.096;2022-07-29T10:18:34;3.90;;;1.45;;
69779;SDS011;57052;55.602;38.096;2022-07-29T10:20:59;1.83;;;1.00;;
69779;SDS011;57052;55.602;38.096;2022-07-29T10:23:29;4.18;;;1.30;;
69779;SDS011;57052;55.602;38.096;2022-07-29T10:25:55;3.28;;;1.30;;
69779;SDS011;57052;55.602;38.096;2022-07-29T10:28:21;5.53;;;1.98;;
69779;SDS011;57052;55.602;38.096;2022-07-29T10:30:48;4.75;;;2.78;;
69779;SDS011;57052;55.602;38.096;2022-07-29T10:35:57;3.97;;;2.90;;
69779;SDS011;57052;55.602;38.096;2022-07-29T10:44:00;2.80;;;2.13;;
69779;SDS011;57052;55.602;38.096;2022-07-29T10:46:38;5.05;;;1.40;;
69779;SDS011;57052;55.602;38.096;2022-07-29T10:54:16;2.42;;;1.40;;
69779;SDS011;57052;55.602;38.096;2022-07-29T10:57:11;3.58;;;1.30;;
69779;SDS011;57052;55.602;38.096;2022-07-29T10:59:43;4.90;;;1.42;;
69779;SDS011;57052;55.602;38.096;2022-07-29T11:05:16;2.88;;;1.20;;
69779;SDS011;57052;55.602;38.096;2022-07-29T11:10:38;2.35;;;1.27;;
69779;SDS011;57052;55.602;38.096;2022-07-29T11:13:04;5.40;;;1.60;;
69779;SDS011;57052;55.602;38.096;2022-07-29T11:15:51;3.72;;;1.35;;
69779;SDS011;57052;55.602;38.096;2022-07-29T11:18:19;4.82;;;1.58;;
69779;SDS011;57052;55.602;38.096;2022-07-29T11:20:46;2.80;;;1.30;;
69779;SDS011;57052;55.602;38.096;2022-07-29T11:23:25;2.35;;;1.20;;
69779;SDS011;57052;55.602;38.096;2022-07-29T11:28:36;3.53;;;1.30;;
69779;SDS011;57052;55.602;38.096;2022-07-29T11:31:31;2.72;;;1.30;;
69779;SDS011;57052;55.602;38.096;2022-07-29T11:39:30;2.10;;;1.20;;
69779;SDS011;57052;55.602;38.096;2022-07-29T11:47:31;1.58;;;0.98;;
69779;SDS011;57052;55.602;38.096;2022-07-29T11:49:59;2.00;;;1.05;;
69779;SDS011;57052;55.602;38.096;2022-07-29T11:52:33;4.97;;;1.33;;
69779;SDS011;57052;55.602;38.096;2022-07-29T11:55:09;2.78;;;1.20;;
69779;SDS011;57052;55.602;38.096;2022-07-29T11:57:38;3.42;;;1.60;;
69779;SDS011;57052;55.602;38.096;2022-07-29T12:00:12;3.03;;;1.30;;
69779;SDS011;57052;55.602;38.096;2022-07-29T12:03:09;1.88;;;1.10;;
69779;SDS011;57052;55.602;38.096;2022-07-29T12:05:41;4.63;;;1.33;;
69779;SDS011;57052;55.602;38.096;2022-07-29T12:10:47;1.10;;;0.98;;
69779;SDS011;57052;55.602;38.096;2022-07-29T12:13:14;2.47;;;1.20;;
69779;SDS011;57052;55.602;38.096;2022-07-29T12:15:41;2.67;;;1.10;;
69779;SDS011;57052;55.602;38.096;2022-07-29T12:18:10;2.10;;;1.10;;
69779;SDS011;57052;55.602;38.096;2022-07-29T12:20:39;2.08;;;1.10;;
69779;SDS011;57052;55.602;38.096;2022-07-29T12:23:05;3.10;;;1.35;;
69779;SDS011;57052;55.602;38.096;2022-07-29T12:25:33;3.13;;;1.30;;
69779;SDS011;57052;55.602;38.096;2022-07-29T12:28:01;3.00;;;1.40;;
69779;SDS011;57052;55.602;38.096;2022-07-29T12:30:49;1.67;;;1.10;;
69779;SDS011;57052;55.602;38.096;2022-07-29T12:33:20;1.63;;;1.00;;
69779;SDS011;57052;55.602;38.096;2022-07-29T12:35:51;3.35;;;1.00;;
69779;SDS011;57052;55.602;38.096;2022-07-29T12:38:18;2.45;;;1.30;;
69779;SDS011;57052;55.602;38.096;2022-07-29T12:40:45;1.30;;;0.90;;
69779;SDS011;57052;55.602;38.096;2022-07-29T12:43:13;2.00;;;0.90;;
69779;SDS011;57052;55.602;38.096;2022-07-29T12:45:41;1.88;;;0.80;;
69779;SDS011;57052;55.602;38.096;2022-07-29T12:48:08;4.07;;;1.10;;
69779;SDS011;57052;55.602;38.096;2022-07-29T12:50:35;5.28;;;1.23;;
69779;SDS011;57052;55.602;38.096;2022-07-29T12:53:09;3.33;;;1.10;;
69779;SDS011;57052;55.602;38.096;2022-07-29T12:55:39;3.83;;;1.10;;
69779;SDS011;57052;55.602;38.096;2022-07-29T12:58:29;1.30;;;1.00;;
69779;SDS011;57052;55.602;38.096;2022-07-29T13:01:09;1.70;;;1.02;;
69779;SDS011;57052;55.602;38.096;2022-07-29T13:03:50;2.05;;;1.23;;
69779;SDS011;57052;55.602;38.096;2022-07-29T13:06:28;3.72;;;1.02;;
69779;SDS011;57052;55.602;38.096;2022-07-29T13:09:12;3.28;;;1.20;;
69779;SDS011;57052;55.602;38.096;2022-07-29T13:11:40;5.07;;;1.20;;
69779;SDS011;57052;55.602;38.096;2022-07-29T13:14:12;2.08;;;0.85;;
69779;SDS011;57052;55.602;38.096;2022-07-29T13:19:51;2.13;;;1.20;;
69779;SDS011;57052;55.602;38.096;2022-07-29T13:22:20;5.50;;;1.00;;
69779;SDS011;57052;55.602;38.096;2022-07-29T13:24:47;2.45;;;0.95;;
69779;SDS011;57052;55.602;38.096;2022-07-29T13:27:17;2.45;;;1.08;;
69779;SDS011;57052;55.602;38.096;2022-07-29T13:29:47;4.30;;;1.00;;
69779;SDS011;57052;55.602;38.096;2022-07-29T13:32:16;2.42;;;1.00;;
69779;SDS011;57052;55.602;38.096;2022-07-29T13:34:42;2.70;;;1.00;;
69779;SDS011;57052;55.602;38.096;2022-07-29T13:37:08;1.30;;;0.93;;
69779;SDS011;57052;55.602;38.096;2022-07-29T13:39:33;4.85;;;1.10;;
69779;SDS011;57052;55.602;38.096;2022-07-29T13:41:59;2.67;;;0.80;;
69779;SDS011;57052;55.602;38.096;2022-07-29T13:44:25;1.95;;;0.95;;
69779;SDS011;57052;55.602;38.096;2022-07-29T13:46:50;3.55;;;1.20;;
69779;SDS011;57052;55.602;38.096;2022-07-29T13:49:16;1.95;;;1.10;;
69779;SDS011;57052;55.602;38.096;2022-07-29T13:51:42;3.65;;;1.30;;
69779;SDS011;57052;55.602;38.096;2022-07-29T13:54:08;1.90;;;1.10;;
69779;SDS011;57052;55.602;38.096;2022-07-29T13:56:33;2.03;;;1.10;;
69779;SDS011;57052;55.602;38.096;2022-07-29T13:58:59;2.90;;;1.60;;
69779;SDS011;57052;55.602;38.096;2022-07-29T14:01:26;1.73;;;1.00;;
69779;SDS011;57052;55.602;38.096;2022-07-29T14:03:52;2.53;;;1.00;;
69779;SDS011;57052;55.602;38.096;2022-07-29T14:06:18;1.85;;;1.10;;
69779;SDS011;57052;55.602;38.096;2022-07-29T14:08:44;3.97;;;1.48;;
69779;SDS011;57052;55.602;38.096;2022-07-29T14:11:10;3.15;;;1.30;;
69779;SDS011;57052;55.602;38.096;2022-07-29T14:13:35;2.72;;;1.20;;
69779;SDS011;57052;55.602;38.096;2022-07-29T14:16:01;2.33;;;1.20;;
69779;SDS011;57052;55.602;38.096;2022-07-29T14:18:27;2.75;;;1.77;;
69779;SDS011;57052;55.602;38.096;2022-07-29T14:20:52;2.55;;;1.00;;
69779;SDS011;57052;55.602;38.096;2022-07-29T14:23:18;2.70;;;1.23;;
69779;SDS011;57052;55.602;38.096;2022-07-29T14:25:44;1.42;;;1.08;;
69779;SDS011;57052;55.602;38.096;2022-07-29T14:28:09;3.05;;;1.10;;
69779;SDS011;57052;55.602;38.096;2022-07-29T14:30:35;2.67;;;1.02;;
69779;SDS011;57052;55.602;38.096;2022-07-29T14:33:01;2.65;;;1.00;;
69779;SDS011;57052;55.602;38.096;2022-07-29T14:35:26;2.20;;;1.00;;
69779;SDS011;57052;55.602;38.096;2022-07-29T14:37:52;2.75;;;1.05;;
69779;SDS011;57052;55.602;38.096;2022-07-29T14:40:18;2.20;;;0.95;;
69779;SDS011;57052;55.602;38.096;2022-07-29T14:42:44;0.90;;;0.70;;
69779;SDS011;57052;55.602;38.096;2022-07-29T14:45:09;1.50;;;1.00;;
69779;SDS011;57052;55.602;38.096;2022-07-29T14:47:35;3.92;;;1.00;;
69779;SDS011;57052;55.602;38.096;2022-07-29T14:50:02;3.35;;;1.10;;
69779;SDS011;57052;55.602;38.096;2022-07-29T14:52:28;3.47;;;1.08;;
69779;SDS011;57052;55.602;38.096;2022-07-29T14:54:54;3.83;;;1.30;;
69779;SDS011;57052;55.602;38.096;2022-07-29T14:57:20;3.55;;;1.20;;
69779;SDS011;57052;55.602;38.096;2022-07-29T14:59:45;2.25;;;1.10;;
69779;SDS011;57052;55.602;38.096;2022-07-29T15:02:11;3.17;;;1.35;;
69779;SDS011;57052;55.602;38.096;2022-07-29T15:04:36;3.42;;;1.20;;
69779;SDS011;57052;55.602;38.096;2022-07-29T15:07:02;4.03;;;1.20;;
69779;SDS011;57052;55.602;38.096;2022-07-29T15:09:28;2.53;;;1.00;;
69779;SDS011;57052;55.602;38.096;2022-07-29T15:11:53;3.35;;;1.10;;
69779;SDS011;57052;55.602;38.096;2022-07-29T15:14:19;4.13;;;1.75;;
69779;SDS011;57052;55.602;38.096;2022-07-29T15:16:45;1.65;;;1.13;;
69779;SDS011;57052;55.602;38.096;2022-07-29T15:19:10;5.13;;;1.80;;
69779;SDS011;57052;55.602;38.096;2022-07-29T15:21:36;2.17;;;1.40;;
69779;SDS011;57052;55.602;38.096;2022-07-29T15:24:02;2.70;;;1.52;;
69779;SDS011;57052;55.602;38.096;2022-07-29T15:26:28;6.43;;;1.95;;
69779;SDS011;57052;55.602;38.096;2022-07-29T15:28:53;4.63;;;1.58;;
69779;SDS011;57052;55.602;38.096;2022-07-29T15:31:21;4.32;;;1.40;;
69779;SDS011;57052;55.602;38.096;2022-07-29T15:33:47;3.03;;;1.45;;
69779;SDS011;57052;55.602;38.096;2022-07-29T15:36:12;5.53;;;1.65;;